Pagina principale
METAR-TAF:

METAR-TAF

Aeroporti :

Genova, Italia

Aeroporto di Genova-Sestri

latitudine: 44-25N, longitudine: 008-51E, altezza: 2 m

Osservazione

Il bollettino è stato emesso 28 minuti fa, alle 09:20 UTC
Vento 2 kt da direzioni variabili
Temperature 19°C
Umidità 60%
Pressione 1021 hPa
Visibilità 10 km o più
nessuna nube inferiore a 1500 m e nessun cumulonembo

METAR: LIMJ 250920Z VRB02KT CAVOK 19/11 Q1021

Ora: 10:48 (09:48 UTC)

Previsione

Il bollettino è stato emesso 4 ore e 48 minuti fa, alle 05:00 UTC
Previsione valida dal 25 alle 06 UTC al 26 alle 06 UTC
Vento 10 kt da nord-est
Visibilità 10 km o più
Nubi sparse ad un'altezza di 8000 ft
Temporaneamente
dal 25 alle 13 UTC al 25 alle 18 UTC
Visibilità: 4000 m
rovesci di pioggia
Temporaneamente
dal 25 alle 18 UTC al 25 alle 22 UTC
pioggia

TAF: LIMJ 250500Z 2506/2606 04010KT 9999 SCT080 TEMPO 2513/2518 4000 SHRA TEMPO 2518/2522 RA

Osservazioni e previsioni meteorologiche di più di 4000 aeroporti (messaggi METAR e TAF).

Le stazioni disponibili sono rappresentate dai dischi gialli e rossi sulla carta.

Puntare il mouse per vedere il nome della stazione.

Clicca sopra per visualizzare le osservazioni e previsioni meteorologiche.

Per cambiare la mappa : fare clic sui pulsanti verdi con una croce nera per ingrandire, il pulsante verde con un trattino per diminuire, o sulla freccia verde per le mappe adiacenti.


METAR-TAF: